createdAt,value
2017-05-09T00:00:52.242Z,1016.98
2017-05-09T00:01:52.224Z,1017.02
2017-05-09T00:02:52.150Z,1016.95
2017-05-09T00:03:52.124Z,1016.98
2017-05-09T00:04:52.102Z,1017.01
2017-05-09T00:05:52.074Z,1016.96
2017-05-09T00:06:52.051Z,1016.98
2017-05-09T00:07:52.027Z,1016.96
2017-05-09T00:08:52.006Z,1016.94
2017-05-09T00:09:52.011Z,1016.93
2017-05-09T00:10:51.954Z,1016.97
2017-05-09T00:11:51.930Z,1016.94
2017-05-09T00:12:51.906Z,1016.96
2017-05-09T00:13:51.880Z,1016.88
2017-05-09T00:14:51.859Z,1016.95
2017-05-09T00:15:51.833Z,1016.91
2017-05-09T00:16:51.807Z,1016.89
2017-05-09T00:17:51.785Z,1016.9
2017-05-09T00:18:51.762Z,1016.86
2017-05-09T00:19:51.737Z,1016.84
2017-05-09T00:20:51.712Z,1016.86
2017-05-09T00:21:51.687Z,1016.88
2017-05-09T00:22:51.664Z,1016.88
2017-05-09T00:23:51.638Z,1016.8
2017-05-09T00:24:51.616Z,1016.85
2017-05-09T00:25:51.591Z,1016.86
2017-05-09T00:26:51.616Z,1016.85
2017-05-09T00:27:51.542Z,1016.83
2017-05-09T00:28:51.529Z,1016.77
2017-05-09T00:29:51.495Z,1016.8
2017-05-09T00:30:51.468Z,1016.81
2017-05-09T00:31:51.444Z,1016.84
2017-05-09T00:32:51.426Z,1016.84
2017-05-09T00:33:51.407Z,1016.8
2017-05-09T00:34:51.371Z,1016.79
2017-05-09T00:35:51.346Z,1016.79
2017-05-09T00:36:51.323Z,1016.75
2017-05-09T00:37:51.304Z,1016.74
2017-05-09T00:38:51.275Z,1016.71
2017-05-09T00:39:51.247Z,1016.72
2017-05-09T00:40:51.228Z,1016.66
2017-05-09T00:41:51.197Z,1016.67
2017-05-09T00:42:51.177Z,1016.68
2017-05-09T00:43:51.155Z,1016.73
2017-05-09T00:44:51.124Z,1016.68
2017-05-09T00:45:51.104Z,1016.76
2017-05-09T00:46:51.071Z,1016.71
2017-05-09T00:47:51.051Z,1016.72
2017-05-09T00:48:51.026Z,1016.76
2017-05-09T00:49:51.005Z,1016.74
2017-05-09T00:50:50.977Z,1016.69
2017-05-09T00:51:50.953Z,1016.74
2017-05-09T00:52:50.929Z,1016.68
2017-05-09T00:53:50.906Z,1016.71
2017-05-09T00:54:50.879Z,1016.69
2017-05-09T00:55:50.854Z,1016.66
2017-05-09T00:56:50.828Z,1016.68
2017-05-09T00:57:50.805Z,1016.64
2017-05-09T00:58:50.779Z,1016.62
2017-05-09T00:59:50.752Z,1016.65
2017-05-09T01:00:50.729Z,1016.61
2017-05-09T01:01:50.706Z,1016.64
2017-05-09T01:02:50.679Z,1016.61
2017-05-09T01:03:50.656Z,1016.62
2017-05-09T01:04:50.642Z,1016.59
2017-05-09T01:05:50.611Z,1016.58
2017-05-09T01:06:50.586Z,1016.6
2017-05-09T01:07:50.555Z,1016.56
2017-05-09T01:08:50.530Z,1016.58
2017-05-09T01:09:50.505Z,1016.6
2017-05-09T01:10:50.479Z,1016.56
2017-05-09T01:11:50.457Z,1016.57
2017-05-09T01:12:50.430Z,1016.53
2017-05-09T01:13:50.407Z,1016.54
2017-05-09T01:14:50.385Z,1016.51
2017-05-09T01:15:50.354Z,1016.52
2017-05-09T01:16:50.330Z,1016.5
2017-05-09T01:17:50.306Z,1016.54
2017-05-09T01:18:50.285Z,1016.51
2017-05-09T01:19:50.506Z,1016.5
2017-05-09T01:20:50.232Z,1016.48
2017-05-09T01:21:50.205Z,1016.51
2017-05-09T01:22:50.182Z,1016.48
2017-05-09T01:23:50.156Z,1016.54
2017-05-09T01:24:50.130Z,1016.5
2017-05-09T01:25:50.107Z,1016.5
2017-05-09T01:26:50.080Z,1016.51
2017-05-09T01:27:50.057Z,1016.5
2017-05-09T01:28:50.030Z,1016.48
2017-05-09T01:29:50.006Z,1016.45
2017-05-09T01:30:49.979Z,1016.43
2017-05-09T01:31:49.954Z,1016.42
2017-05-09T01:32:49.936Z,1016.42
2017-05-09T01:33:49.907Z,1016.39
2017-05-09T01:34:49.878Z,1016.36
2017-05-09T01:35:49.855Z,1016.37
2017-05-09T01:36:49.829Z,1016.35
2017-05-09T01:37:49.802Z,1016.4
2017-05-09T01:38:49.781Z,1016.4
2017-05-09T01:39:49.754Z,1016.38
2017-05-09T01:40:49.729Z,1016.37
2017-05-09T01:41:49.733Z,1016.39
2017-05-09T01:42:49.678Z,1016.35
2017-05-09T01:43:49.652Z,1016.35
2017-05-09T01:44:49.628Z,1016.34
2017-05-09T01:45:49.606Z,1016.33
2017-05-09T01:46:49.573Z,1016.36
2017-05-09T01:47:49.550Z,1016.35
2017-05-09T01:48:49.526Z,1016.33
2017-05-09T01:49:49.501Z,1016.31
2017-05-09T01:50:49.476Z,1016.32
2017-05-09T01:51:49.451Z,1016.3
2017-05-09T01:52:49.478Z,1016.33
2017-05-09T01:53:49.401Z,1016.34
2017-05-09T01:54:49.375Z,1016.34
2017-05-09T01:55:49.354Z,1016.37
2017-05-09T01:56:49.329Z,1016.42
2017-05-09T01:57:49.300Z,1016.37
2017-05-09T01:58:49.279Z,1016.41
2017-05-09T01:59:49.254Z,1016.41
2017-05-09T02:00:49.524Z,1016.38
2017-05-09T02:01:49.201Z,1016.4
2017-05-09T02:02:49.174Z,1016.4
2017-05-09T02:03:49.145Z,1016.46
2017-05-09T02:04:49.122Z,1016.41
2017-05-09T02:05:49.097Z,1016.44
2017-05-09T02:06:49.073Z,1016.48
2017-05-09T02:07:49.043Z,1016.47
2017-05-09T02:08:49.020Z,1016.47
2017-05-09T02:09:48.995Z,1016.5
2017-05-09T02:10:48.970Z,1016.48
2017-05-09T02:11:48.948Z,1016.5
2017-05-09T02:12:48.926Z,1016.48
2017-05-09T02:13:48.893Z,1016.52
2017-05-09T02:14:48.870Z,1016.52
2017-05-09T02:15:48.844Z,1016.5
2017-05-09T02:16:48.825Z,1016.5
2017-05-09T02:17:48.792Z,1016.51
2017-05-09T02:18:48.766Z,1016.51
2017-05-09T02:19:48.744Z,1016.52
2017-05-09T02:20:48.713Z,1016.58
2017-05-09T02:21:48.691Z,1016.59
2017-05-09T02:22:48.666Z,1016.57
2017-05-09T02:23:48.641Z,1016.56
2017-05-09T02:24:48.615Z,1016.55
2017-05-09T02:25:48.588Z,1016.51
2017-05-09T02:26:48.563Z,1016.5
2017-05-09T02:27:48.539Z,1016.51
2017-05-09T02:28:48.514Z,1016.51
2017-05-09T02:29:48.491Z,1016.48
2017-05-09T02:30:48.461Z,1016.44
2017-05-09T02:31:48.475Z,1016.41
2017-05-09T02:32:48.411Z,1016.45
2017-05-09T02:33:48.386Z,1016.44
2017-05-09T02:34:48.361Z,1016.44
2017-05-09T02:35:48.371Z,1016.44
2017-05-09T02:36:48.308Z,1016.44
2017-05-09T02:37:48.287Z,1016.42
2017-05-09T02:38:48.258Z,1016.43
2017-05-09T02:39:48.234Z,1016.43
2017-05-09T02:40:48.206Z,1016.47
2017-05-09T02:41:48.182Z,1016.45
2017-05-09T02:42:48.157Z,1016.42
2017-05-09T02:43:48.132Z,1016.4
2017-05-09T02:44:48.106Z,1016.43
2017-05-09T02:45:48.084Z,1016.46
2017-05-09T02:46:48.056Z,1016.5
2017-05-09T02:47:48.029Z,1016.48
2017-05-09T02:48:48.006Z,1016.47
2017-05-09T02:49:47.986Z,1016.44
2017-05-09T02:50:47.951Z,1016.46
2017-05-09T02:51:47.929Z,1016.45
2017-05-09T02:52:47.901Z,1016.43
2017-05-09T02:53:47.875Z,1016.39
2017-05-09T02:54:47.857Z,1016.42
2017-05-09T02:55:47.826Z,1016.37
2017-05-09T02:56:47.798Z,1016.39
2017-05-09T02:57:47.774Z,1016.43
2017-05-09T02:58:47.747Z,1016.33
2017-05-09T02:59:47.724Z,1016.34
2017-05-09T03:00:47.696Z,1016.32
2017-05-09T03:01:47.670Z,1016.31
2017-05-09T03:02:47.644Z,1016.28
2017-05-09T03:03:47.621Z,1016.33
2017-05-09T03:04:47.594Z,1016.3
2017-05-09T03:05:47.570Z,1016.36
2017-05-09T03:06:47.542Z,1016.29
2017-05-09T03:07:47.515Z,1016.29
2017-05-09T03:08:47.496Z,1016.28
2017-05-09T03:09:47.463Z,1016.22
2017-05-09T03:10:47.438Z,1016.26
2017-05-09T03:11:47.413Z,1016.25
2017-05-09T03:12:47.389Z,1016.23
2017-05-09T03:13:47.365Z,1016.22
2017-05-09T03:14:47.336Z,1016.25
2017-05-09T03:15:47.310Z,1016.22
2017-05-09T03:16:47.290Z,1016.21
2017-05-09T03:17:47.262Z,1016.18
2017-05-09T03:18:47.233Z,1016.18
2017-05-09T03:19:47.456Z,1016.18
2017-05-09T03:20:47.182Z,1016.2
2017-05-09T03:21:47.157Z,1016.26
2017-05-09T03:22:47.130Z,1016.23
2017-05-09T03:23:47.105Z,1016.22
2017-05-09T03:24:47.080Z,1016.28
2017-05-09T03:25:47.054Z,1016.27
2017-05-09T03:26:47.029Z,1016.3
2017-05-09T03:27:47.006Z,1016.3
2017-05-09T03:28:46.977Z,1016.3
2017-05-09T03:29:46.951Z,1016.32
2017-05-09T03:30:46.928Z,1016.34
2017-05-09T03:31:46.903Z,1016.34
2017-05-09T03:32:46.874Z,1016.34
2017-05-09T03:33:46.852Z,1016.33
2017-05-09T03:34:46.822Z,1016.34
2017-05-09T03:35:46.797Z,1016.31
2017-05-09T03:36:46.770Z,1016.32
2017-05-09T03:37:46.748Z,1016.31
2017-05-09T03:38:46.772Z,1016.29
2017-05-09T03:39:46.694Z,1016.31
2017-05-09T03:40:46.668Z,1016.24
2017-05-09T03:41:46.645Z,1016.28
2017-05-09T03:42:46.618Z,1016.28
2017-05-09T03:43:46.590Z,1016.22
2017-05-09T03:44:46.563Z,1016.26
2017-05-09T03:45:46.538Z,1016.22
2017-05-09T03:46:46.511Z,1016.24
2017-05-09T03:47:46.485Z,1016.21
2017-05-09T03:48:46.461Z,1016.21
2017-05-09T03:49:46.437Z,1016.21
2017-05-09T03:50:46.407Z,1016.21
2017-05-09T03:51:46.382Z,1016.2
2017-05-09T03:52:46.357Z,1016.21
2017-05-09T03:53:46.334Z,1016.2
2017-05-09T03:54:46.307Z,1016.23
2017-05-09T03:55:46.280Z,1016.22
2017-05-09T03:56:46.255Z,1016.2
2017-05-09T03:57:46.228Z,1016.2
2017-05-09T03:58:46.203Z,1016.23
2017-05-09T03:59:46.177Z,1016.23
2017-05-09T04:00:46.149Z,1016.25
2017-05-09T04:01:46.128Z,1016.24
2017-05-09T04:02:46.101Z,1016.27
2017-05-09T04:03:46.078Z,1016.29
2017-05-09T04:04:46.053Z,1016.25
2017-05-09T04:05:46.021Z,1016.34
2017-05-09T04:06:45.997Z,1016.32
2017-05-09T04:07:45.969Z,1016.35
2017-05-09T04:08:45.944Z,1016.36
2017-05-09T04:09:45.920Z,1016.32
2017-05-09T04:10:45.891Z,1016.34
2017-05-09T04:11:45.868Z,1016.35
2017-05-09T04:12:45.841Z,1016.39
2017-05-09T04:13:45.814Z,1016.41
2017-05-09T04:14:45.788Z,1016.4
2017-05-09T04:15:45.769Z,1016.42
2017-05-09T04:16:45.738Z,1016.42
2017-05-09T04:17:45.713Z,1016.39
2017-05-09T04:18:45.684Z,1016.4
2017-05-09T04:19:45.682Z,1016.35
2017-05-09T04:20:45.637Z,1016.31
2017-05-09T04:21:45.616Z,1016.32
2017-05-09T04:22:45.591Z,1016.24
2017-05-09T04:23:45.559Z,1016.29
2017-05-09T04:24:45.535Z,1016.29
2017-05-09T04:25:45.510Z,1016.36
2017-05-09T04:26:45.484Z,1016.29
2017-05-09T04:27:45.458Z,1016.28
2017-05-09T04:28:45.436Z,1016.35
2017-05-09T04:29:45.407Z,1016.32
2017-05-09T04:30:45.384Z,1016.31
2017-05-09T04:31:45.360Z,1016.22
2017-05-09T04:32:45.334Z,1016.26
2017-05-09T04:33:45.309Z,1016.23
2017-05-09T04:34:45.284Z,1016.23
2017-05-09T04:35:45.261Z,1016.24
2017-05-09T04:36:45.235Z,1016.21
2017-05-09T04:37:45.208Z,1016.2
2017-05-09T04:38:45.187Z,1016.2
2017-05-09T04:39:45.164Z,1016.21
2017-05-09T04:40:45.137Z,1016.18
2017-05-09T04:41:45.113Z,1016.17
2017-05-09T04:42:45.089Z,1016.22
2017-05-09T04:43:45.064Z,1016.19
2017-05-09T04:44:45.042Z,1016.24
2017-05-09T04:45:45.019Z,1016.24
2017-05-09T04:46:44.996Z,1016.17
2017-05-09T04:47:44.969Z,1016.19
2017-05-09T04:48:44.943Z,1016.18
2017-05-09T04:49:44.921Z,1016.16
2017-05-09T04:50:44.899Z,1016.17
2017-05-09T04:51:44.876Z,1016.17
2017-05-09T04:52:44.853Z,1016.16
2017-05-09T04:53:44.827Z,1016.17
2017-05-09T04:54:44.804Z,1016.13
2017-05-09T04:55:44.779Z,1016.14
2017-05-09T04:56:44.797Z,1016.07
2017-05-09T04:57:44.738Z,1016.1
2017-05-09T04:58:44.713Z,1016.11
2017-05-09T04:59:44.689Z,1016.08
2017-05-09T05:00:44.664Z,1016.13
2017-05-09T05:01:44.642Z,1016.08
2017-05-09T05:02:44.618Z,1016.06
2017-05-09T05:03:44.597Z,1016.05
2017-05-09T05:04:44.578Z,1016.07
2017-05-09T05:05:44.551Z,1016.08
2017-05-09T05:06:44.525Z,1016.05
2017-05-09T05:07:44.506Z,1016.07
2017-05-09T05:08:44.482Z,1016.13
2017-05-09T05:09:44.468Z,1016.14
2017-05-09T05:10:44.435Z,1016.13
2017-05-09T05:11:44.420Z,1016.07
2017-05-09T05:12:44.397Z,1016.13
2017-05-09T05:13:44.370Z,1016.08
2017-05-09T05:14:44.346Z,1016.1
2017-05-09T05:15:44.330Z,1016.08
2017-05-09T05:16:44.305Z,1016.09
2017-05-09T05:17:44.283Z,1016.14
2017-05-09T05:18:44.260Z,1016.14
2017-05-09T05:19:44.238Z,1016.12
2017-05-09T05:20:44.214Z,1016.15
2017-05-09T05:21:44.191Z,1016.12
2017-05-09T05:22:44.172Z,1016.06
2017-05-09T05:23:44.152Z,1016.13
2017-05-09T05:24:44.127Z,1016.12
2017-05-09T05:25:44.108Z,1016.13
2017-05-09T05:26:44.091Z,1016.11
2017-05-09T05:27:44.075Z,1016.07
2017-05-09T05:28:44.041Z,1016.13
2017-05-09T05:29:44.019Z,1016.12
2017-05-09T05:30:43.999Z,1016.1
2017-05-09T05:31:43.978Z,1016.06
2017-05-09T05:32:43.956Z,1016.03
2017-05-09T05:33:43.975Z,1016.02
2017-05-09T05:34:43.916Z,1016.05
2017-05-09T05:35:43.890Z,1016.03
2017-05-09T05:36:43.870Z,1016.03
2017-05-09T05:37:43.850Z,1016
2017-05-09T05:38:43.831Z,1015.97
2017-05-09T05:39:43.807Z,1016.01
2017-05-09T05:40:43.790Z,1016
2017-05-09T05:41:43.768Z,1015.97
2017-05-09T05:42:43.744Z,1015.99
2017-05-09T05:43:43.722Z,1015.98
2017-05-09T05:44:43.703Z,1016.01
2017-05-09T05:45:43.684Z,1016.01
2017-05-09T05:46:43.660Z,1016.03
2017-05-09T05:47:43.642Z,1015.99
2017-05-09T05:48:43.616Z,1016.03
2017-05-09T05:49:43.599Z,1016.03
2017-05-09T05:50:43.580Z,1016.06
2017-05-09T05:51:43.560Z,1016.09
2017-05-09T05:52:43.592Z,1016.11
2017-05-09T05:53:43.520Z,1016.07
2017-05-09T05:54:43.503Z,1016.02
2017-05-09T05:55:43.479Z,1016.01
2017-05-09T05:56:43.462Z,1016.03
2017-05-09T05:57:43.442Z,1016.02
2017-05-09T05:58:43.420Z,1016.05
2017-05-09T05:59:43.401Z,1016.08
2017-05-09T06:00:43.380Z,1016.03
2017-05-09T06:01:43.363Z,1016.05
2017-05-09T06:02:43.344Z,1016.09
2017-05-09T06:03:43.322Z,1016.01
2017-05-09T06:04:43.302Z,1016.06
2017-05-09T06:05:43.281Z,1016.05
2017-05-09T06:06:43.263Z,1016.03
2017-05-09T06:07:43.240Z,1016.04
2017-05-09T06:08:43.222Z,1016.08
2017-05-09T06:09:43.205Z,1016.03
2017-05-09T06:10:43.186Z,1016.05
2017-05-09T06:11:43.164Z,1016.07
2017-05-09T06:12:43.148Z,1016.03
2017-05-09T06:13:43.126Z,1016.09
2017-05-09T06:14:43.106Z,1016.08
2017-05-09T06:15:43.087Z,1016.03
2017-05-09T06:16:43.068Z,1016.03
2017-05-09T06:17:43.050Z,1016.08
2017-05-09T06:18:43.036Z,1016.08
2017-05-09T06:19:43.013Z,1016.05
2017-05-09T06:20:42.993Z,1016.06
2017-05-09T06:21:42.974Z,1016.07
2017-05-09T06:22:42.955Z,1016.08
2017-05-09T06:23:42.942Z,1016.08
2017-05-09T06:24:42.918Z,1016.09
2017-05-09T06:25:42.899Z,1016.08
2017-05-09T06:26:42.883Z,1016.06
2017-05-09T06:27:42.864Z,1016.1
2017-05-09T06:28:42.841Z,1016.11
2017-05-09T06:29:42.826Z,1016.08
2017-05-09T06:30:42.806Z,1016.08
2017-05-09T06:31:42.791Z,1016.03
2017-05-09T06:32:42.772Z,1016.09
2017-05-09T06:33:42.802Z,1016.1
2017-05-09T06:34:42.732Z,1016.08
2017-05-09T06:35:42.716Z,1016.09
2017-05-09T06:36:42.700Z,1016.03
2017-05-09T06:37:42.680Z,1016.05
2017-05-09T06:38:42.669Z,1016.09
2017-05-09T06:39:42.644Z,1016.12
2017-05-09T06:40:42.629Z,1016.13
2017-05-09T06:41:42.610Z,1016.11
2017-05-09T06:42:42.592Z,1016.1
2017-05-09T06:43:42.575Z,1016.12
2017-05-09T06:44:42.556Z,1016.16
2017-05-09T06:45:42.541Z,1016.11
2017-05-09T06:46:42.529Z,1016.14
2017-05-09T06:47:42.506Z,1016.11
2017-05-09T06:48:42.487Z,1016.15
2017-05-09T06:49:42.473Z,1016.18
2017-05-09T06:50:42.455Z,1016.12
2017-05-09T06:51:42.439Z,1016.14
2017-05-09T06:52:42.422Z,1016.13
2017-05-09T06:53:42.411Z,1016.12
2017-05-09T06:54:42.389Z,1016.09
2017-05-09T06:55:42.369Z,1016.01
2017-05-09T06:56:42.355Z,1016.02
2017-05-09T06:57:42.339Z,1016.09
2017-05-09T06:58:42.321Z,1016.03
2017-05-09T06:59:42.302Z,1016.05
2017-05-09T07:00:42.294Z,1015.97
2017-05-09T07:01:42.273Z,1015.99
2017-05-09T07:02:42.255Z,1015.96
2017-05-09T07:03:42.237Z,1016.03
2017-05-09T07:04:42.222Z,1016
2017-05-09T07:05:42.205Z,1015.99
2017-05-09T07:06:42.188Z,1015.98
2017-05-09T07:07:42.172Z,1015.98
2017-05-09T07:08:42.207Z,1015.95
2017-05-09T07:09:42.142Z,1015.93
2017-05-09T07:10:42.125Z,1015.93
2017-05-09T07:11:42.109Z,1015.91
2017-05-09T07:12:42.098Z,1015.92
2017-05-09T07:13:42.077Z,1015.98
2017-05-09T07:14:42.062Z,1015.97
2017-05-09T07:15:42.047Z,1015.95
2017-05-09T07:16:42.034Z,1015.95
2017-05-09T07:17:42.065Z,1015.94
2017-05-09T07:18:41.998Z,1015.93
2017-05-09T07:19:41.983Z,1015.91
2017-05-09T07:20:41.971Z,1015.88
2017-05-09T07:21:41.952Z,1015.86
2017-05-09T07:22:41.937Z,1015.89
2017-05-09T07:23:41.922Z,1015.93
2017-05-09T07:24:41.906Z,1015.9
2017-05-09T07:25:41.890Z,1015.85
2017-05-09T07:26:41.878Z,1015.88
2017-05-09T07:27:41.861Z,1015.91
2017-05-09T07:28:41.844Z,1015.89
2017-05-09T07:29:41.840Z,1015.87
2017-05-09T07:30:41.817Z,1015.91
2017-05-09T07:31:41.802Z,1015.89
2017-05-09T07:32:41.787Z,1015.87
2017-05-09T07:33:41.770Z,1015.87
2017-05-09T07:34:41.757Z,1015.87
2017-05-09T07:35:41.739Z,1015.89
2017-05-09T07:36:41.727Z,1015.9
2017-05-09T07:37:41.715Z,1015.89
2017-05-09T07:38:41.698Z,1015.88
2017-05-09T07:39:41.680Z,1015.89
2017-05-09T07:40:41.667Z,1015.84
2017-05-09T07:41:41.655Z,1015.91
2017-05-09T07:42:41.642Z,1015.92
2017-05-09T07:43:41.623Z,1015.86
2017-05-09T07:44:41.611Z,1015.85
2017-05-09T07:45:41.597Z,1015.81
2017-05-09T07:46:41.586Z,1015.78
2017-05-09T07:47:41.570Z,1015.81
2017-05-09T07:48:41.553Z,1015.77
2017-05-09T07:49:41.540Z,1015.79
2017-05-09T07:50:41.531Z,1015.79
2017-05-09T07:51:41.512Z,1015.78
2017-05-09T07:52:41.502Z,1015.82
2017-05-09T07:53:41.486Z,1015.83
2017-05-09T07:54:41.471Z,1015.81
2017-05-09T07:55:41.508Z,1015.75
2017-05-09T07:56:41.445Z,1015.75
2017-05-09T07:57:41.432Z,1015.76
2017-05-09T07:58:41.415Z,1015.66
2017-05-09T07:59:41.404Z,1015.67
2017-05-09T08:00:41.392Z,1015.68
2017-05-09T08:01:41.375Z,1015.71
2017-05-09T08:02:41.361Z,1015.65
2017-05-09T08:03:41.349Z,1015.65
2017-05-09T08:04:41.337Z,1015.71
2017-05-09T08:05:41.322Z,1015.65
2017-05-09T08:06:41.310Z,1015.7
2017-05-09T08:07:41.298Z,1015.69
2017-05-09T08:08:41.284Z,1015.65
2017-05-09T08:09:41.271Z,1015.66
2017-05-09T08:10:41.266Z,1015.66
2017-05-09T08:11:41.248Z,1015.61
2017-05-09T08:12:41.235Z,1015.65
2017-05-09T08:13:41.228Z,1015.62
2017-05-09T08:14:41.213Z,1015.62
2017-05-09T08:15:41.201Z,1015.61
2017-05-09T08:16:41.189Z,1015.64
2017-05-09T08:17:41.177Z,1015.7
2017-05-09T08:18:41.168Z,1015.63
2017-05-09T08:19:41.152Z,1015.68
2017-05-09T08:20:41.148Z,1015.59
2017-05-09T08:21:41.131Z,1015.6
2017-05-09T08:22:41.114Z,1015.62
2017-05-09T08:23:41.106Z,1015.56
2017-05-09T08:24:41.099Z,1015.57
2017-05-09T08:25:41.084Z,1015.53
2017-05-09T08:26:41.072Z,1015.54
2017-05-09T08:27:41.061Z,1015.52
2017-05-09T08:28:41.054Z,1015.48
2017-05-09T08:29:41.039Z,1015.54
2017-05-09T08:30:41.025Z,1015.49
2017-05-09T08:31:41.012Z,1015.48
2017-05-09T08:32:41.053Z,1015.48
2017-05-09T08:33:40.992Z,1015.47
2017-05-09T08:34:40.980Z,1015.47
2017-05-09T08:35:40.963Z,1015.45
2017-05-09T08:36:40.952Z,1015.4
2017-05-09T08:37:40.939Z,1015.46
2017-05-09T08:38:40.930Z,1015.43
2017-05-09T08:39:40.920Z,1015.44
2017-05-09T08:40:40.908Z,1015.45
2017-05-09T08:41:40.894Z,1015.47
2017-05-09T08:42:40.889Z,1015.46
2017-05-09T08:43:40.871Z,1015.43
2017-05-09T08:44:40.857Z,1015.5
2017-05-09T08:45:40.845Z,1015.44
2017-05-09T08:46:40.841Z,1015.41
2017-05-09T08:47:40.823Z,1015.43
2017-05-09T08:48:40.811Z,1015.46
2017-05-09T08:49:40.801Z,1015.43
2017-05-09T08:50:40.790Z,1015.43
2017-05-09T08:51:40.781Z,1015.41
2017-05-09T08:52:40.764Z,1015.4
2017-05-09T08:53:40.755Z,1015.35
2017-05-09T08:54:40.745Z,1015.34
2017-05-09T08:55:40.734Z,1015.37
2017-05-09T08:56:40.722Z,1015.34
2017-05-09T08:57:40.711Z,1015.29
2017-05-09T08:58:40.699Z,1015.33
2017-05-09T08:59:40.690Z,1015.29
2017-05-09T09:00:40.678Z,1015.28
2017-05-09T09:01:40.667Z,1015.3
2017-05-09T09:02:40.659Z,1015.25
2017-05-09T09:03:40.646Z,1015.24
2017-05-09T09:04:40.683Z,1015.27
2017-05-09T09:05:40.627Z,1015.24
2017-05-09T09:06:40.622Z,1015.23
2017-05-09T09:07:40.606Z,1015.26
2017-05-09T09:08:40.605Z,1015.32
2017-05-09T09:09:40.582Z,1015.29
2017-05-09T09:10:40.571Z,1015.27
2017-05-09T09:11:40.560Z,1015.26
2017-05-09T09:12:40.549Z,1015.25
2017-05-09T09:13:40.539Z,1015.24
2017-05-09T09:14:40.525Z,1015.31
2017-05-09T09:15:40.514Z,1015.27
2017-05-09T09:16:40.502Z,1015.26
2017-05-09T09:17:40.493Z,1015.27
2017-05-09T09:18:40.477Z,1015.31
2017-05-09T09:19:40.466Z,1015.26
2017-05-09T09:20:40.455Z,1015.18
2017-05-09T09:21:40.443Z,1015.18
2017-05-09T09:22:40.431Z,1015.23
2017-05-09T09:23:40.420Z,1015.21
2017-05-09T09:24:40.406Z,1015.16
2017-05-09T09:25:40.396Z,1015.19
2017-05-09T09:26:40.382Z,1015.18
2017-05-09T09:27:40.370Z,1015.2
2017-05-09T09:28:40.359Z,1015.11
2017-05-09T09:29:40.349Z,1015.1
2017-05-09T09:30:40.337Z,1015.14
2017-05-09T09:31:40.325Z,1015.1
2017-05-09T09:32:40.323Z,1015.12
2017-05-09T09:33:40.302Z,1015.14
2017-05-09T09:34:40.290Z,1015.09
2017-05-09T09:35:40.278Z,1015.06
2017-05-09T09:36:40.267Z,1015.1
2017-05-09T09:37:40.256Z,1015.05
2017-05-09T09:38:40.242Z,1015.06
2017-05-09T09:39:40.230Z,1015.05
2017-05-09T09:40:40.221Z,1015.1
2017-05-09T09:41:40.211Z,1015.14
2017-05-09T09:42:40.199Z,1015.08
2017-05-09T09:43:40.185Z,1015.12
2017-05-09T09:44:40.174Z,1015.14
2017-05-09T09:45:40.161Z,1015.15
2017-05-09T09:46:40.153Z,1015.12
2017-05-09T09:47:40.141Z,1015.11
2017-05-09T09:48:40.126Z,1015.12
2017-05-09T09:49:40.112Z,1015.15
2017-05-09T09:50:40.102Z,1015.11
2017-05-09T09:51:40.092Z,1015.07
2017-05-09T09:52:40.079Z,1015.09
2017-05-09T09:53:40.067Z,1015.05
2017-05-09T09:54:40.054Z,1015.05
2017-05-09T09:55:40.043Z,1014.96
2017-05-09T09:56:40.030Z,1015
2017-05-09T09:57:40.019Z,1014.98
2017-05-09T09:58:40.005Z,1015.01
2017-05-09T09:59:39.991Z,1015.05
2017-05-09T10:00:39.979Z,1015
2017-05-09T10:01:39.965Z,1014.99
2017-05-09T10:02:39.951Z,1014.97
2017-05-09T10:03:39.937Z,1014.94
2017-05-09T10:04:39.923Z,1014.94
2017-05-09T10:05:39.910Z,1014.94
2017-05-09T10:06:39.897Z,1014.91
2017-05-09T10:07:39.888Z,1014.92
2017-05-09T10:08:39.877Z,1014.88
2017-05-09T10:09:39.858Z,1014.9
2017-05-09T10:10:39.845Z,1014.92
2017-05-09T10:11:39.831Z,1014.86
2017-05-09T10:12:39.869Z,1014.87
2017-05-09T10:13:39.807Z,1014.86
2017-05-09T10:14:39.792Z,1014.88
2017-05-09T10:15:39.817Z,1014.86
2017-05-09T10:16:39.770Z,1014.83
2017-05-09T10:17:39.757Z,1014.83
2017-05-09T10:18:39.746Z,1014.76
2017-05-09T10:19:39.735Z,1014.78
2017-05-09T10:20:39.720Z,1014.78
2017-05-09T10:21:39.710Z,1014.75
2017-05-09T10:22:39.699Z,1014.76
2017-05-09T10:23:39.688Z,1014.71
2017-05-09T10:24:39.680Z,1014.72
2017-05-09T10:25:39.665Z,1014.69
2017-05-09T10:26:39.651Z,1014.72
2017-05-09T10:27:39.645Z,1014.75
2017-05-09T10:28:39.630Z,1014.72
2017-05-09T10:29:39.618Z,1014.71
2017-05-09T10:30:39.608Z,1014.76
2017-05-09T10:31:39.651Z,1014.77
2017-05-09T10:32:39.586Z,1014.7
2017-05-09T10:33:39.574Z,1014.69
2017-05-09T10:34:39.562Z,1014.65
2017-05-09T10:35:39.552Z,1014.67
2017-05-09T10:36:39.540Z,1014.61
2017-05-09T10:37:39.527Z,1014.59
2017-05-09T10:38:39.515Z,1014.63
2017-05-09T10:39:39.756Z,1014.62
2017-05-09T10:40:39.487Z,1014.58
2017-05-09T10:41:39.476Z,1014.62
2017-05-09T10:42:39.465Z,1014.67
2017-05-09T10:43:39.448Z,1014.57
2017-05-09T10:44:39.435Z,1014.58
2017-05-09T10:45:39.416Z,1014.58
2017-05-09T10:46:39.400Z,1014.54
2017-05-09T10:47:39.385Z,1014.5
2017-05-09T10:48:39.368Z,1014.55
2017-05-09T10:49:39.351Z,1014.6
2017-05-09T10:50:39.338Z,1014.59
2017-05-09T10:51:39.322Z,1014.5
2017-05-09T10:52:39.306Z,1014.47
2017-05-09T10:53:39.289Z,1014.44
2017-05-09T10:54:39.273Z,1014.47
2017-05-09T10:55:39.309Z,1014.46
2017-05-09T10:56:39.242Z,1014.43
2017-05-09T10:57:39.228Z,1014.43
2017-05-09T10:58:39.212Z,1014.36
2017-05-09T10:59:39.197Z,1014.36
2017-05-09T11:00:39.179Z,1014.36
2017-05-09T11:01:39.163Z,1014.34
2017-05-09T11:02:39.148Z,1014.29
2017-05-09T11:03:39.132Z,1014.32
2017-05-09T11:04:39.116Z,1014.32
2017-05-09T11:05:39.099Z,1014.32
2017-05-09T11:06:39.082Z,1014.34
2017-05-09T11:07:39.066Z,1014.31
2017-05-09T11:08:39.050Z,1014.3
2017-05-09T11:09:39.033Z,1014.3
2017-05-09T11:10:39.014Z,1014.25
2017-05-09T11:11:38.998Z,1014.26
2017-05-09T11:12:38.977Z,1014.23
2017-05-09T11:13:38.958Z,1014.16
2017-05-09T11:14:38.939Z,1014.17
2017-05-09T11:15:38.921Z,1014.13
2017-05-09T11:16:38.901Z,1014.1
2017-05-09T11:17:38.888Z,1014.08
2017-05-09T11:18:38.870Z,1014.04
2017-05-09T11:19:38.847Z,1014.04
2017-05-09T11:20:38.830Z,1014.05
2017-05-09T11:21:38.808Z,1014.01
2017-05-09T11:22:38.789Z,1014.04
2017-05-09T11:23:38.772Z,1013.98
2017-05-09T11:24:38.753Z,1014.02
2017-05-09T11:25:38.731Z,1013.98
2017-05-09T11:26:38.711Z,1014.01
2017-05-09T11:27:38.693Z,1013.97
2017-05-09T11:28:38.673Z,1013.96
2017-05-09T11:29:38.658Z,1013.97
2017-05-09T11:30:38.636Z,1013.95
2017-05-09T11:31:38.614Z,1013.96
2017-05-09T11:32:38.605Z,1013.88
2017-05-09T11:33:38.576Z,1013.89
2017-05-09T11:34:38.561Z,1013.9
2017-05-09T11:35:38.538Z,1013.83
2017-05-09T11:36:38.519Z,1013.88
2017-05-09T11:37:38.499Z,1013.8
2017-05-09T11:38:38.480Z,1013.85
2017-05-09T11:39:38.461Z,1013.85
2017-05-09T11:40:38.439Z,1013.78
2017-05-09T11:41:38.424Z,1013.8
2017-05-09T11:42:38.400Z,1013.81
2017-05-09T11:43:38.382Z,1013.85
2017-05-09T11:44:38.365Z,1013.83
2017-05-09T11:45:38.341Z,1013.79
2017-05-09T11:46:38.321Z,1013.8
2017-05-09T11:47:38.303Z,1013.81
2017-05-09T11:48:38.282Z,1013.77
2017-05-09T11:49:38.262Z,1013.73
2017-05-09T11:50:38.243Z,1013.71
2017-05-09T11:51:38.222Z,1013.71
2017-05-09T11:52:38.203Z,1013.74
2017-05-09T11:53:38.182Z,1013.7
2017-05-09T11:54:38.165Z,1013.67
2017-05-09T11:55:38.141Z,1013.6
2017-05-09T11:56:38.124Z,1013.62
2017-05-09T11:57:38.105Z,1013.65
2017-05-09T11:58:38.133Z,1013.59
2017-05-09T11:59:38.067Z,1013.54
2017-05-09T12:00:38.045Z,1013.63
2017-05-09T12:01:38.026Z,1013.61
2017-05-09T12:02:38.004Z,1013.64
2017-05-09T12:03:37.985Z,1013.58
2017-05-09T12:04:37.994Z,1013.58
2017-05-09T12:05:37.946Z,1013.56
2017-05-09T12:06:37.925Z,1013.55
2017-05-09T12:07:37.908Z,1013.6
2017-05-09T12:08:37.889Z,1013.56